createdAt,value
2019-02-19T00:00:51.783Z,22.36
2019-02-19T00:01:51.737Z,22.36
2019-02-19T00:02:51.694Z,22.16
2019-02-19T00:03:51.649Z,22.45
2019-02-19T00:04:51.604Z,22.16
2019-02-19T00:05:51.559Z,22.36
2019-02-19T00:06:51.515Z,22.45
2019-02-19T00:07:51.477Z,22.45
2019-02-19T00:08:51.426Z,22.06
2019-02-19T00:09:51.387Z,22.06
2019-02-19T00:10:51.336Z,22.26
2019-02-19T00:11:51.301Z,22.34
2019-02-19T00:12:51.249Z,22.34
2019-02-19T00:13:51.204Z,22.36
2019-02-19T00:14:51.161Z,22.34
2019-02-19T00:15:51.115Z,22.06
2019-02-19T00:16:51.071Z,22.36
2019-02-19T00:17:51.025Z,22.26
2019-02-19T00:18:50.981Z,22.36
2019-02-19T00:19:50.987Z,22.36
2019-02-19T00:20:50.893Z,22.45
2019-02-19T00:21:50.851Z,22.26
2019-02-19T00:22:50.804Z,22.34
2019-02-19T00:23:50.760Z,22.26
2019-02-19T00:24:50.715Z,22.36
2019-02-19T00:25:50.669Z,22.36
2019-02-19T00:26:50.626Z,22.26
2019-02-19T00:27:50.580Z,22.36
2019-02-19T00:28:50.536Z,22.06
2019-02-19T00:29:50.491Z,22.45
2019-02-19T00:30:50.447Z,22.26
2019-02-19T00:31:50.402Z,22.26
2019-02-19T00:32:50.358Z,22.36
2019-02-19T00:33:50.314Z,22.45
2019-02-19T00:34:50.269Z,22.26
2019-02-19T00:35:50.224Z,22.25
2019-02-19T00:36:50.180Z,22.36
2019-02-19T00:37:50.137Z,22.45
2019-02-19T00:38:50.094Z,22.26
2019-02-19T00:39:50.046Z,22.26
2019-02-19T00:40:50.003Z,22.36
2019-02-19T00:41:50.007Z,22.26
2019-02-19T00:42:49.915Z,22.26
2019-02-19T00:43:49.868Z,22.16
2019-02-19T00:44:49.824Z,22.06
2019-02-19T00:45:49.778Z,22.26
2019-02-19T00:46:49.735Z,22.26
2019-02-19T00:47:49.690Z,22.26
2019-02-19T00:48:49.647Z,22.06
2019-02-19T00:49:49.601Z,22.06
2019-02-19T00:50:49.556Z,22.26
2019-02-19T00:51:49.512Z,22.26
2019-02-19T00:52:49.469Z,22.26
2019-02-19T00:53:49.423Z,22.26
2019-02-19T00:54:49.379Z,22.26
2019-02-19T00:55:49.385Z,22.26
2019-02-19T00:56:49.290Z,22.26
2019-02-19T00:57:49.246Z,22.36
2019-02-19T00:58:49.200Z,22.06
2019-02-19T00:59:49.156Z,22.26
2019-02-19T01:00:49.112Z,22.26
2019-02-19T01:01:49.067Z,21.97
2019-02-19T01:02:49.022Z,21.78
2019-02-19T01:03:48.978Z,22.06
2019-02-19T01:04:48.989Z,21.97
2019-02-19T01:05:48.891Z,21.97
2019-02-19T01:06:48.846Z,22.16
2019-02-19T01:07:48.802Z,22.06
2019-02-19T01:08:48.757Z,21.97
2019-02-19T01:09:48.712Z,21.97
2019-02-19T01:10:48.667Z,22.26
2019-02-19T01:11:48.624Z,21.97
2019-02-19T01:12:48.579Z,22.06
2019-02-19T01:13:48.534Z,22.26
2019-02-19T01:14:48.486Z,22.06
2019-02-19T01:15:48.445Z,21.97
2019-02-19T01:16:48.393Z,21.97
2019-02-19T01:17:48.351Z,21.97
2019-02-19T01:18:48.303Z,22.16
2019-02-19T01:19:48.258Z,22.16
2019-02-19T01:20:48.214Z,22.06
2019-02-19T01:21:48.169Z,22.06
2019-02-19T01:22:48.124Z,21.97
2019-02-19T01:23:48.083Z,22.06
2019-02-19T01:24:48.039Z,22.06
2019-02-19T01:25:47.991Z,22.16
2019-02-19T01:26:47.996Z,21.78
2019-02-19T01:27:47.902Z,22.16
2019-02-19T01:28:47.858Z,21.78
2019-02-19T01:29:47.818Z,21.78
2019-02-19T01:30:47.769Z,21.78
2019-02-19T01:31:47.724Z,21.97
2019-02-19T01:32:47.683Z,22.16
2019-02-19T01:33:47.635Z,22.06
2019-02-19T01:34:47.590Z,22.16
2019-02-19T01:35:47.549Z,22.26
2019-02-19T01:36:47.503Z,21.97
2019-02-19T01:37:47.457Z,21.78
2019-02-19T01:38:47.412Z,21.78
2019-02-19T01:39:47.917Z,21.88
2019-02-19T01:40:47.323Z,22.16
2019-02-19T01:41:47.279Z,22.06
2019-02-19T01:42:47.234Z,21.97
2019-02-19T01:43:47.189Z,22.16
2019-02-19T01:44:47.146Z,21.78
2019-02-19T01:45:47.103Z,21.97
2019-02-19T01:46:47.057Z,21.78
2019-02-19T01:47:47.014Z,22.26
2019-02-19T01:48:46.970Z,21.78
2019-02-19T01:49:46.922Z,21.97
2019-02-19T01:50:46.879Z,21.78
2019-02-19T01:51:46.833Z,22.06
2019-02-19T01:52:46.790Z,21.78
2019-02-19T01:53:46.753Z,21.97
2019-02-19T01:54:46.701Z,22.26
2019-02-19T01:55:46.655Z,21.78
2019-02-19T01:56:46.612Z,22.06
2019-02-19T01:57:46.883Z,21.78
2019-02-19T01:58:46.522Z,22.06
2019-02-19T01:59:46.478Z,21.88
2019-02-19T02:00:46.434Z,21.97
2019-02-19T02:01:46.388Z,22.26
2019-02-19T02:02:46.344Z,21.97
2019-02-19T02:03:46.347Z,21.97
2019-02-19T02:04:46.256Z,22.16
2019-02-19T02:05:46.211Z,21.88
2019-02-19T02:06:46.166Z,21.78
2019-02-19T02:07:46.122Z,21.78
2019-02-19T02:08:46.078Z,21.78
2019-02-19T02:09:46.033Z,21.78
2019-02-19T02:10:46.038Z,21.97
2019-02-19T02:11:45.994Z,21.78
2019-02-19T02:12:45.900Z,22.06
2019-02-19T02:13:45.855Z,21.97
2019-02-19T02:14:45.810Z,21.88
2019-02-19T02:15:45.766Z,22.06
2019-02-19T02:16:45.722Z,22.06
2019-02-19T02:17:45.676Z,22.06
2019-02-19T02:18:45.633Z,22.06
2019-02-19T02:19:45.592Z,22.06
2019-02-19T02:20:45.543Z,21.97
2019-02-19T02:21:45.498Z,22.06
2019-02-19T02:22:45.455Z,22.06
2019-02-19T02:23:45.418Z,21.78
2019-02-19T02:24:45.365Z,22.06
2019-02-19T02:25:45.320Z,22.06
2019-02-19T02:26:45.276Z,22.06
2019-02-19T02:27:45.231Z,21.97
2019-02-19T02:28:45.188Z,21.97
2019-02-19T02:29:45.142Z,21.97
2019-02-19T02:30:45.102Z,21.68
2019-02-19T02:31:45.058Z,22.06
2019-02-19T02:32:45.010Z,22.06
2019-02-19T02:33:44.965Z,21.88
2019-02-19T02:34:44.920Z,22.06
2019-02-19T02:35:44.879Z,21.78
2019-02-19T02:36:44.841Z,21.97
2019-02-19T02:37:44.789Z,21.97
2019-02-19T02:38:44.743Z,22.06
2019-02-19T02:39:44.698Z,21.88
2019-02-19T02:40:44.653Z,21.97
2019-02-19T02:41:44.610Z,21.97
2019-02-19T02:42:44.563Z,21.88
2019-02-19T02:43:44.518Z,21.97
2019-02-19T02:44:44.475Z,21.97
2019-02-19T02:45:52.675Z,22.06
2019-02-19T02:46:44.387Z,21.88
2019-02-19T02:47:44.349Z,21.97
2019-02-19T02:48:44.297Z,21.88
2019-02-19T02:49:44.253Z,21.97
2019-02-19T02:50:44.208Z,21.88
2019-02-19T02:51:44.214Z,21.97
2019-02-19T02:52:44.126Z,21.88
2019-02-19T02:53:44.074Z,21.88
2019-02-19T02:54:44.030Z,21.77
2019-02-19T02:55:43.986Z,21.88
2019-02-19T02:56:43.992Z,21.88
2019-02-19T02:57:43.898Z,21.88
2019-02-19T02:58:43.852Z,22.06
2019-02-19T02:59:43.809Z,21.88
2019-02-19T03:00:43.764Z,21.88
2019-02-19T03:01:43.717Z,21.88
2019-02-19T03:02:43.680Z,22.06
2019-02-19T03:03:43.631Z,21.88
2019-02-19T03:04:43.599Z,21.97
2019-02-19T03:05:43.544Z,21.88
2019-02-19T03:06:43.501Z,21.78
2019-02-19T03:07:43.452Z,21.88
2019-02-19T03:08:43.413Z,21.88
2019-02-19T03:09:43.363Z,21.97
2019-02-19T03:10:43.319Z,21.78
2019-02-19T03:11:43.274Z,21.88
2019-02-19T03:12:43.230Z,22.06
2019-02-19T03:13:43.185Z,21.97
2019-02-19T03:14:43.141Z,21.97
2019-02-19T03:15:43.096Z,21.97
2019-02-19T03:16:43.052Z,21.97
2019-02-19T03:17:43.009Z,22.06
2019-02-19T03:18:42.964Z,21.88
2019-02-19T03:19:42.969Z,21.88
2019-02-19T03:20:42.874Z,21.88
2019-02-19T03:21:42.828Z,21.97
2019-02-19T03:22:42.784Z,21.88
2019-02-19T03:23:42.741Z,21.88
2019-02-19T03:24:42.697Z,21.97
2019-02-19T03:25:42.650Z,21.88
2019-02-19T03:26:42.606Z,21.88
2019-02-19T03:27:42.563Z,22.06
2019-02-19T03:28:42.518Z,21.88
2019-02-19T03:29:42.472Z,21.88
2019-02-19T03:30:42.429Z,21.88
2019-02-19T03:31:42.385Z,21.88
2019-02-19T03:32:42.339Z,21.88
2019-02-19T03:33:42.296Z,21.88
2019-02-19T03:34:42.250Z,21.88
2019-02-19T03:35:42.209Z,21.88
2019-02-19T03:36:42.162Z,22.06
2019-02-19T03:37:42.116Z,21.78
2019-02-19T03:38:42.072Z,21.88
2019-02-19T03:39:42.029Z,22.06
2019-02-19T03:40:41.984Z,21.97
2019-02-19T03:41:42.004Z,21.97
2019-02-19T03:42:41.893Z,22.06
2019-02-19T03:43:41.878Z,21.97
2019-02-19T03:44:41.805Z,22.06
2019-02-19T03:45:41.762Z,22.06
2019-02-19T03:46:41.715Z,22.06
2019-02-19T03:47:41.672Z,22.06
2019-02-19T03:48:41.627Z,21.88
2019-02-19T03:49:41.582Z,21.78
2019-02-19T03:50:41.543Z,22.06
2019-02-19T03:51:41.496Z,22.06
2019-02-19T03:52:41.450Z,22.06
2019-02-19T03:53:41.407Z,22.06
2019-02-19T03:54:41.360Z,22.06
2019-02-19T03:55:41.315Z,22.16
2019-02-19T03:56:41.271Z,22.06
2019-02-19T03:57:41.226Z,22.26
2019-02-19T03:58:41.182Z,22.06
2019-02-19T03:59:41.138Z,22.06
2019-02-19T04:00:41.094Z,22.06
2019-02-19T04:01:41.054Z,22.06
2019-02-19T04:02:41.004Z,22.06
2019-02-19T04:03:40.959Z,22.06
2019-02-19T04:04:40.915Z,22.06
2019-02-19T04:05:40.871Z,22.06
2019-02-19T04:06:40.827Z,22.36
2019-02-19T04:07:40.783Z,22.06
2019-02-19T04:08:40.736Z,21.68
2019-02-19T04:09:40.693Z,22.16
2019-02-19T04:10:40.648Z,22.06
2019-02-19T04:11:40.604Z,22.06
2019-02-19T04:12:40.559Z,22.06
2019-02-19T04:13:40.513Z,22.06
2019-02-19T04:14:40.469Z,22.06
2019-02-19T04:15:40.426Z,22.26
2019-02-19T04:16:40.380Z,22.26
2019-02-19T04:17:40.336Z,22.06
2019-02-19T04:18:40.291Z,22.26
2019-02-19T04:19:40.249Z,22.16
2019-02-19T04:20:40.202Z,22.06
2019-02-19T04:21:40.158Z,22.26
2019-02-19T04:22:40.113Z,21.68
2019-02-19T04:23:40.070Z,21.68
2019-02-19T04:24:40.024Z,22.06
2019-02-19T04:25:39.979Z,22.26
2019-02-19T04:26:39.992Z,22.16
2019-02-19T04:27:39.892Z,22.26
2019-02-19T04:28:39.847Z,22.26
2019-02-19T04:29:39.802Z,22.16
2019-02-19T04:30:39.758Z,22.26
2019-02-19T04:31:39.713Z,22.26
2019-02-19T04:32:39.671Z,22.26
2019-02-19T04:33:39.629Z,22.16
2019-02-19T04:34:39.577Z,21.58
2019-02-19T04:35:39.535Z,21.58
2019-02-19T04:36:39.491Z,21.48
2019-02-19T04:37:39.445Z,21.68
2019-02-19T04:38:39.446Z,21.68
2019-02-19T04:39:39.357Z,22.16
2019-02-19T04:40:39.312Z,21.58
2019-02-19T04:41:39.267Z,21.68
2019-02-19T04:42:39.259Z,22.06
2019-02-19T04:43:39.178Z,21.48
2019-02-19T04:44:39.134Z,22.16
2019-02-19T04:45:39.089Z,22.06
2019-02-19T04:46:39.075Z,22.06
2019-02-19T04:47:39.000Z,22.16
2019-02-19T04:48:38.956Z,21.58
2019-02-19T04:49:38.911Z,22.06
2019-02-19T04:50:38.866Z,21.58
2019-02-19T04:51:38.823Z,21.58
2019-02-19T04:52:38.780Z,21.58
2019-02-19T04:53:38.733Z,21.68
2019-02-19T04:54:38.690Z,21.58
2019-02-19T04:55:38.644Z,21.68
2019-02-19T04:56:38.603Z,21.48
2019-02-19T04:57:38.555Z,21.68
2019-02-19T04:58:38.511Z,21.68
2019-02-19T04:59:38.466Z,21.48
2019-02-19T05:00:38.422Z,21.58
2019-02-19T05:01:38.377Z,21.78
2019-02-19T05:02:38.333Z,21.68
2019-02-19T05:03:38.287Z,21.58
2019-02-19T05:04:38.242Z,21.58
2019-02-19T05:05:38.198Z,21.68
2019-02-19T05:06:38.157Z,21.58
2019-02-19T05:07:38.110Z,21.68
2019-02-19T05:08:38.066Z,21.97
2019-02-19T05:09:38.019Z,21.68
2019-02-19T05:10:37.978Z,21.58
2019-02-19T05:11:37.932Z,21.58
2019-02-19T05:12:37.901Z,21.58
2019-02-19T05:13:37.843Z,21.58
2019-02-19T05:14:37.798Z,21.48
2019-02-19T05:15:37.755Z,21.58
2019-02-19T05:16:40.805Z,21.68
2019-02-19T05:17:37.665Z,21.97
2019-02-19T05:18:37.620Z,21.68
2019-02-19T05:19:37.575Z,21.68
2019-02-19T05:20:37.531Z,21.39
2019-02-19T05:21:37.487Z,22.06
2019-02-19T05:22:37.443Z,21.58
2019-02-19T05:23:37.398Z,21.68
2019-02-19T05:24:37.353Z,21.58
2019-02-19T05:25:37.311Z,21.58
2019-02-19T05:26:37.264Z,21.68
2019-02-19T05:27:37.221Z,21.78
2019-02-19T05:28:37.175Z,21.68
2019-02-19T05:29:37.130Z,21.88
2019-02-19T05:30:37.086Z,21.78
2019-02-19T05:31:37.041Z,21.78
2019-02-19T05:32:36.996Z,21.58
2019-02-19T05:33:36.954Z,21.58
2019-02-19T05:34:36.908Z,21.97
2019-02-19T05:35:36.863Z,21.78
2019-02-19T05:36:36.823Z,21.88
2019-02-19T05:37:36.796Z,21.88
2019-02-19T05:38:36.737Z,21.88
2019-02-19T05:39:36.686Z,21.78
2019-02-19T05:40:36.640Z,21.68
2019-02-19T05:41:36.597Z,21.88
2019-02-19T05:42:36.555Z,21.78
2019-02-19T05:43:36.508Z,21.78
2019-02-19T05:44:36.464Z,21.78
2019-02-19T05:45:36.418Z,21.78
2019-02-19T05:46:36.376Z,21.58
2019-02-19T05:47:36.331Z,21.68
2019-02-19T05:48:36.285Z,21.48
2019-02-19T05:49:36.240Z,21.68
2019-02-19T05:50:36.203Z,21.58
2019-02-19T05:51:36.158Z,21.68
2019-02-19T05:52:36.107Z,21.88
2019-02-19T05:53:36.062Z,21.68
2019-02-19T05:54:36.017Z,21.78
2019-02-19T05:55:35.976Z,21.78
2019-02-19T05:56:35.933Z,21.48
2019-02-19T05:57:35.884Z,21.88
2019-02-19T05:58:35.840Z,21.68
2019-02-19T05:59:35.796Z,21.97
2019-02-19T06:00:35.751Z,21.68
2019-02-19T06:01:35.712Z,21.68
2019-02-19T06:02:35.662Z,21.68
2019-02-19T06:03:35.617Z,21.88
2019-02-19T06:04:35.575Z,21.88
2019-02-19T06:05:35.528Z,21.68
2019-02-19T06:06:35.484Z,21.88
2019-02-19T06:07:35.440Z,21.88
2019-02-19T06:08:35.401Z,21.88
2019-02-19T06:09:35.353Z,21.88
2019-02-19T06:10:35.306Z,21.68
2019-02-19T06:11:35.266Z,21.78
2019-02-19T06:12:35.223Z,21.88
2019-02-19T06:13:35.172Z,21.88
2019-02-19T06:14:35.128Z,21.78
2019-02-19T06:15:35.084Z,21.78
2019-02-19T06:16:35.039Z,21.78
2019-02-19T06:17:34.994Z,21.78
2019-02-19T06:18:35.000Z,21.78
2019-02-19T06:19:35.055Z,22.06
2019-02-19T06:20:34.868Z,21.88
2019-02-19T06:21:34.819Z,21.88
2019-02-19T06:22:34.772Z,21.88
2019-02-19T06:23:34.733Z,21.78
2019-02-19T06:24:34.684Z,21.97
2019-02-19T06:25:34.639Z,22.08
2019-02-19T06:26:34.594Z,21.78
2019-02-19T06:27:34.550Z,21.97
2019-02-19T06:28:34.504Z,22.06
2019-02-19T06:29:34.460Z,21.97
2019-02-19T06:30:34.417Z,21.88
2019-02-19T06:31:34.371Z,21.88
2019-02-19T06:32:34.327Z,21.88
2019-02-19T06:33:34.283Z,21.39
2019-02-19T06:34:34.244Z,21.48
2019-02-19T06:35:34.195Z,21.30
2019-02-19T06:36:34.149Z,21.39
2019-02-19T06:37:34.105Z,21.30
2019-02-19T06:38:34.060Z,21.39
2019-02-19T06:39:34.016Z,21.48
2019-02-19T06:40:33.975Z,21.10
2019-02-19T06:41:33.926Z,21.20
2019-02-19T06:42:33.882Z,21.30
2019-02-19T06:43:33.842Z,21.48
2019-02-19T06:44:33.793Z,21.20
2019-02-19T06:45:33.748Z,21.39
2019-02-19T06:46:33.703Z,21.39
2019-02-19T06:47:33.660Z,21.30
2019-02-19T06:48:33.615Z,21.20
2019-02-19T06:49:33.570Z,21.30
2019-02-19T06:50:33.526Z,21.39
2019-02-19T06:51:33.485Z,21.30
2019-02-19T06:52:33.441Z,21.20
2019-02-19T06:53:33.392Z,21.30
2019-02-19T06:54:33.349Z,21.20
2019-02-19T06:55:33.305Z,21.10
2019-02-19T06:56:33.259Z,21.01
2019-02-19T06:57:33.215Z,21.30
2019-02-19T06:58:33.172Z,21.20
2019-02-19T06:59:33.126Z,21.20
2019-02-19T07:00:33.082Z,21.20
2019-02-19T07:01:33.037Z,21.11
2019-02-19T07:02:33.047Z,21.40
2019-02-19T07:03:32.999Z,21.20
2019-02-19T07:04:32.904Z,21.20
2019-02-19T07:05:32.859Z,21.20
2019-02-19T07:06:32.822Z,21.30
2019-02-19T07:07:32.771Z,21.11
2019-02-19T07:08:32.727Z,21.50
2019-02-19T07:09:32.686Z,21.11
2019-02-19T07:10:32.638Z,21.20
2019-02-19T07:11:32.593Z,21.30
2019-02-19T07:12:32.549Z,21.20
2019-02-19T07:13:32.504Z,20.92
2019-02-19T07:14:32.460Z,21.11
2019-02-19T07:15:32.429Z,21.01
2019-02-19T07:16:32.372Z,20.92
2019-02-19T07:17:32.325Z,21.01
2019-02-19T07:18:32.283Z,21.02
2019-02-19T07:19:32.238Z,21.12
2019-02-19T07:20:32.195Z,21.01
2019-02-19T07:21:32.151Z,20.93
2019-02-19T07:22:32.107Z,20.54
2019-02-19T07:23:32.063Z,20.83
2019-02-19T07:24:32.017Z,20.93
2019-02-19T07:25:31.973Z,20.54
2019-02-19T07:26:31.929Z,20.73
2019-02-19T07:27:31.885Z,21.02
2019-02-19T07:28:31.842Z,20.64
2019-02-19T07:29:31.798Z,20.64
2019-02-19T07:30:31.752Z,20.73
2019-02-19T07:31:31.707Z,20.73
2019-02-19T07:32:31.666Z,21.12
2019-02-19T07:33:31.622Z,20.54
2019-02-19T07:34:31.574Z,20.44
2019-02-19T07:35:31.531Z,20.44
2019-02-19T07:36:31.489Z,21.12
2019-02-19T07:37:31.441Z,20.54
2019-02-19T07:38:31.397Z,20.64
2019-02-19T07:39:31.354Z,20.83
2019-02-19T07:40:31.311Z,21.12
2019-02-19T07:41:31.265Z,20.44
2019-02-19T07:42:31.221Z,20.83
2019-02-19T07:43:31.181Z,20.83
2019-02-19T07:44:31.132Z,20.54
2019-02-19T07:45:31.088Z,20.93
2019-02-19T07:46:31.045Z,20.64
2019-02-19T07:47:31.001Z,20.64
2019-02-19T07:48:30.957Z,20.54
2019-02-19T07:49:30.912Z,20.64
2019-02-19T07:50:30.868Z,20.73
2019-02-19T07:51:30.825Z,20.64
2019-02-19T07:52:30.784Z,20.64
2019-02-19T07:53:30.736Z,20.93
2019-02-19T07:54:30.692Z,20.93
2019-02-19T07:55:30.650Z,20.73
2019-02-19T07:56:30.604Z,20.83
2019-02-19T07:57:30.562Z,20.72
2019-02-19T07:58:30.515Z,20.64
2019-02-19T07:59:30.474Z,20.64
2019-02-19T08:00:30.431Z,20.34
2019-02-19T08:01:30.383Z,20.83
2019-02-19T08:02:30.341Z,20.62
2019-02-19T08:03:30.295Z,20.93
2019-02-19T08:04:30.251Z,20.64
2019-02-19T08:05:30.208Z,20.44
2019-02-19T08:06:30.163Z,20.93
2019-02-19T08:07:30.122Z,20.93
2019-02-19T08:08:30.075Z,20.64
2019-02-19T08:09:30.066Z,20.44
2019-02-19T08:10:30.038Z,20.64
2019-02-19T08:11:30.143Z,20.83
2019-02-19T08:12:29.902Z,20.64
2019-02-19T08:13:29.854Z,20.73
2019-02-19T08:14:29.821Z,20.64
2019-02-19T08:15:29.766Z,20.64
2019-02-19T08:16:29.723Z,20.54
2019-02-19T08:17:33.447Z,20.83
2019-02-19T08:18:29.635Z,20.54
2019-02-19T08:19:29.593Z,21.02
2019-02-19T08:20:29.546Z,20.83
2019-02-19T08:21:29.502Z,20.64
2019-02-19T08:22:29.461Z,20.73
2019-02-19T08:23:30.001Z,20.64
2019-02-19T08:24:29.371Z,20.73
2019-02-19T08:25:29.326Z,20.64
2019-02-19T08:26:29.282Z,20.73
2019-02-19T08:27:29.237Z,20.83
2019-02-19T08:28:29.194Z,20.83
2019-02-19T08:29:29.149Z,20.93
2019-02-19T08:30:29.105Z,20.83
2019-02-19T08:31:29.064Z,20.64
2019-02-19T08:32:29.017Z,20.93
2019-02-19T08:33:29.024Z,20.93
2019-02-19T08:34:28.979Z,21.22
2019-02-19T08:35:28.885Z,20.64
2019-02-19T08:36:29.802Z,20.64
2019-02-19T08:37:28.799Z,20.54
2019-02-19T08:38:28.753Z,20.73
2019-02-19T08:39:28.708Z,20.64
2019-02-19T08:40:28.665Z,21.22
2019-02-19T08:41:28.620Z,20.54
2019-02-19T08:42:28.576Z,20.73
2019-02-19T08:43:28.534Z,20.73
2019-02-19T08:44:28.489Z,21.22
2019-02-19T08:45:28.445Z,20.64
2019-02-19T08:46:28.401Z,20.83
2019-02-19T08:47:28.357Z,20.83
2019-02-19T08:48:28.313Z,20.93
2019-02-19T08:49:28.269Z,20.93
2019-02-19T08:50:28.229Z,20.54
2019-02-19T08:51:28.181Z,20.73
2019-02-19T08:52:28.141Z,20.54
2019-02-19T08:53:28.092Z,21.12
2019-02-19T08:54:28.052Z,21.02
2019-02-19T08:55:28.006Z,20.72
2019-02-19T08:56:27.961Z,20.82
2019-02-19T08:57:27.967Z,20.62
2019-02-19T08:58:27.875Z,20.92
2019-02-19T08:59:27.831Z,20.92
2019-02-19T09:00:27.818Z,21.01
2019-02-19T09:01:27.745Z,21.11
2019-02-19T09:02:27.696Z,21.11
2019-02-19T09:03:27.652Z,20.82
2019-02-19T09:04:27.609Z,20.92
2019-02-19T09:05:27.564Z,20.92
2019-02-19T09:06:27.753Z,21.11
2019-02-19T09:07:27.476Z,20.92
2019-02-19T09:08:27.432Z,20.92
2019-02-19T09:09:27.388Z,20.92
2019-02-19T09:10:27.347Z,21.20
2019-02-19T09:11:27.302Z,20.92
2019-02-19T09:12:27.258Z,21.11
2019-02-19T09:13:27.212Z,21.01
2019-02-19T09:14:27.168Z,21.11
2019-02-19T09:15:27.126Z,21.01
2019-02-19T09:16:27.080Z,21.01
2019-02-19T09:17:27.034Z,21.11
2019-02-19T09:18:26.991Z,20.92
2019-02-19T09:19:26.947Z,20.92
2019-02-19T09:20:26.903Z,21.01
2019-02-19T09:21:26.858Z,21.01
2019-02-19T09:22:26.814Z,20.92
2019-02-19T09:23:26.771Z,21.01
2019-02-19T09:24:26.728Z,20.92
2019-02-19T09:25:26.682Z,20.92
2019-02-19T09:26:26.638Z,20.82
2019-02-19T09:27:26.593Z,21.01
2019-02-19T09:28:26.550Z,21.01
2019-02-19T09:29:26.505Z,21.11
2019-02-19T09:30:26.462Z,21.20
2019-02-19T09:31:26.418Z,21.11
2019-02-19T09:32:26.375Z,21.01
2019-02-19T09:33:26.329Z,21.01
2019-02-19T09:34:26.285Z,21.01
2019-02-19T09:35:26.241Z,21.11
2019-02-19T09:36:26.197Z,21.11
2019-02-19T09:37:26.153Z,21.01
2019-02-19T09:38:26.108Z,21.11
2019-02-19T09:39:26.065Z,20.92
2019-02-19T09:40:26.021Z,21.20
2019-02-19T09:41:25.975Z,20.92
2019-02-19T09:42:25.982Z,21.01
2019-02-19T09:43:25.888Z,21.01
2019-02-19T09:44:25.845Z,21.01
2019-02-19T09:45:25.799Z,21.01
2019-02-19T09:46:25.756Z,21.01
2019-02-19T09:47:25.713Z,21.01
2019-02-19T09:48:25.671Z,20.92
2019-02-19T09:49:25.623Z,21.01
2019-02-19T09:50:25.579Z,20.92
2019-02-19T09:51:25.537Z,21.01
2019-02-19T09:52:25.493Z,20.92
2019-02-19T09:53:25.446Z,20.92
2019-02-19T09:54:25.410Z,21.01
2019-02-19T09:55:25.358Z,20.82
2019-02-19T09:56:25.314Z,21.11
2019-02-19T09:57:25.270Z,21.11
2019-02-19T09:58:25.227Z,21.11
2019-02-19T09:59:25.181Z,21.01
2019-02-19T10:00:25.141Z,21.20
2019-02-19T10:01:25.093Z,21.01
2019-02-19T10:02:25.050Z,21.11
2019-02-19T10:03:25.056Z,21.11
2019-02-19T10:04:24.961Z,21.01
2019-02-19T10:05:25.023Z,21.11
2019-02-19T10:06:24.873Z,21.11
2019-02-19T10:07:24.856Z,21.11
2019-02-19T10:08:24.785Z,21.01
2019-02-19T10:09:24.740Z,20.92
2019-02-19T10:10:24.696Z,21.11
2019-02-19T10:11:24.652Z,21.01
2019-02-19T10:12:24.608Z,21.01
2019-02-19T10:13:25.152Z,21.11
2019-02-19T10:14:24.519Z,21.11
2019-02-19T10:15:24.496Z,21.20
2019-02-19T10:16:24.431Z,21.11
2019-02-19T10:17:24.386Z,21.01
2019-02-19T10:18:24.342Z,21.11
2019-02-19T10:19:26.044Z,21.11
2019-02-19T10:20:24.255Z,21.01
2019-02-19T10:21:24.216Z,21.11
2019-02-19T10:22:24.167Z,20.82
2019-02-19T10:23:24.122Z,21.20
2019-02-19T10:24:24.078Z,20.92
2019-02-19T10:25:24.033Z,20.92
2019-02-19T10:26:24.039Z,21.01
2019-02-19T10:27:24.049Z,21.01
2019-02-19T10:28:23.901Z,21.01
2019-02-19T10:29:23.858Z,21.11
2019-02-19T10:30:23.812Z,21.11
2019-02-19T10:31:23.767Z,20.92
2019-02-19T10:32:23.725Z,21.20
2019-02-19T10:33:23.681Z,20.92
2019-02-19T10:34:23.641Z,20.92
2019-02-19T10:35:23.592Z,21.11
2019-02-19T10:36:23.549Z,20.92
2019-02-19T10:37:23.503Z,20.92
2019-02-19T10:38:23.463Z,21.01
2019-02-19T10:39:23.414Z,21.11
2019-02-19T10:40:23.377Z,21.01
2019-02-19T10:41:23.326Z,20.82
2019-02-19T10:42:23.285Z,21.20
2019-02-19T10:43:23.553Z,21.11
2019-02-19T10:44:23.199Z,21.40
2019-02-19T10:45:23.150Z,21.11
2019-02-19T10:46:23.106Z,21.40
2019-02-19T10:47:23.064Z,21.40
2019-02-19T10:48:23.018Z,21.40
2019-02-19T10:49:22.974Z,21.11
2019-02-19T10:50:22.936Z,21.20
2019-02-19T10:51:22.887Z,20.92
2019-02-19T10:52:22.841Z,20.82
2019-02-19T10:53:22.795Z,21.20
2019-02-19T10:54:22.752Z,20.92
2019-02-19T10:55:22.710Z,20.92
2019-02-19T10:56:22.665Z,20.92
2019-02-19T10:57:22.620Z,20.92
2019-02-19T10:58:23.352Z,20.82
2019-02-19T10:59:22.534Z,21.11
2019-02-19T11:00:22.489Z,21.01
2019-02-19T11:01:22.444Z,21.01
2019-02-19T11:02:22.399Z,20.92
2019-02-19T11:03:22.359Z,20.92
2019-02-19T11:04:22.311Z,21.11
2019-02-19T11:05:22.269Z,21.11
2019-02-19T11:06:22.222Z,21.11
2019-02-19T11:07:22.181Z,20.92
2019-02-19T11:08:22.134Z,21.20
2019-02-19T11:09:22.089Z,21.01
2019-02-19T11:10:22.046Z,20.92
2019-02-19T11:11:22.000Z,21.01
2019-02-19T11:12:21.958Z,21.20
2019-02-19T11:13:21.912Z,21.02
2019-02-19T11:14:21.869Z,21.40
2019-02-19T11:15:21.825Z,21.11
2019-02-19T11:16:21.781Z,20.92
2019-02-19T11:17:21.736Z,20.92
2019-02-19T11:18:28.060Z,20.92
2019-02-19T11:19:21.649Z,20.64
2019-02-19T11:20:21.608Z,20.64
2019-02-19T11:21:21.575Z,20.93
2019-02-19T11:22:21.516Z,20.64
2019-02-19T11:23:21.480Z,21.11
2019-02-19T11:24:21.426Z,20.62
2019-02-19T11:25:21.391Z,20.93
2019-02-19T11:26:21.348Z,20.64
2019-02-19T11:27:21.304Z,20.72
2019-02-19T11:28:21.251Z,21.22
2019-02-19T11:29:21.228Z,20.93
2019-02-19T11:30:21.167Z,20.43
2019-02-19T11:31:21.120Z,20.44
2019-02-19T11:32:21.075Z,20.62
2019-02-19T11:33:21.031Z,20.54
2019-02-19T11:34:20.988Z,20.73
2019-02-19T11:35:20.993Z,21.01
2019-02-19T11:36:20.898Z,20.82
2019-02-19T11:37:20.854Z,20.83
2019-02-19T11:38:20.810Z,20.72
2019-02-19T11:39:22.535Z,20.82
2019-02-19T11:40:20.722Z,20.82
2019-02-19T11:41:20.678Z,20.93
2019-02-19T11:42:20.634Z,21.22
2019-02-19T11:43:20.588Z,20.72
2019-02-19T11:44:20.546Z,20.73
2019-02-19T11:45:20.502Z,20.62
2019-02-19T11:46:20.457Z,20.53
2019-02-19T11:47:26.459Z,20.93
2019-02-19T11:48:20.371Z,21.01
2019-02-19T11:49:20.324Z,20.92
2019-02-19T11:50:20.281Z,21.01
2019-02-19T11:51:20.237Z,20.92
2019-02-19T11:52:20.193Z,21.11
2019-02-19T11:53:20.148Z,21.20
2019-02-19T11:54:21.857Z,20.92
2019-02-19T11:55:20.062Z,20.92
2019-02-19T11:56:20.017Z,21.01
2019-02-19T11:57:19.973Z,21.01
2019-02-19T11:58:19.978Z,21.01
2019-02-19T11:59:19.886Z,20.92
2019-02-19T12:00:19.841Z,21.01
2019-02-19T12:01:19.799Z,20.72
2019-02-19T12:02:19.752Z,21.01
2019-02-19T12:03:19.708Z,20.92
2019-02-19T12:04:19.664Z,21.11
2019-02-19T12:05:19.619Z,20.82
2019-02-19T12:06:19.576Z,20.82
2019-02-19T12:07:19.532Z,21.11
2019-02-19T12:08:19.488Z,20.92
2019-02-19T12:09:19.449Z,21.11
2019-02-19T12:10:19.398Z,21.20
2019-02-19T12:11:19.355Z,21.02
2019-02-19T12:12:19.311Z,21.11
2019-02-19T12:13:19.267Z,21.40
2019-02-19T12:14:19.227Z,21.12
2019-02-19T12:15:19.351Z,21.11
2019-02-19T12:16:19.135Z,20.83
2019-02-19T12:17:19.096Z,20.93
2019-02-19T12:18:19.045Z,21.02
2019-02-19T12:19:19.002Z,20.54
2019-02-19T12:20:18.961Z,20.43
2019-02-19T12:21:18.916Z,20.64
2019-02-19T12:22:18.869Z,20.93
2019-02-19T12:23:18.826Z,20.83
2019-02-19T12:24:18.782Z,20.64
2019-02-19T12:25:18.737Z,21.12
2019-02-19T12:26:18.704Z,20.64
2019-02-19T12:27:18.650Z,20.83
2019-02-19T12:28:18.605Z,20.82
2019-02-19T12:29:18.561Z,20.64
2019-02-19T12:30:18.520Z,21.02
2019-02-19T12:31:18.473Z,20.54
2019-02-19T12:32:18.429Z,20.73
2019-02-19T12:33:18.434Z,20.64
2019-02-19T12:34:18.343Z,20.62
2019-02-19T12:35:18.297Z,20.54
2019-02-19T12:36:18.253Z,20.62
2019-02-19T12:37:18.208Z,21.01
2019-02-19T12:38:18.164Z,20.62
2019-02-19T12:39:18.120Z,20.93
2019-02-19T12:40:18.075Z,21.11
2019-02-19T12:41:18.032Z,20.44
2019-02-19T12:42:17.988Z,20.44
2019-02-19T12:43:17.947Z,21.02
2019-02-19T12:44:17.900Z,20.92
2019-02-19T12:45:18.007Z,21.11
2019-02-19T12:46:17.813Z,20.64
2019-02-19T12:47:17.771Z,20.43
2019-02-19T12:48:17.724Z,20.93
2019-02-19T12:49:17.687Z,20.73
2019-02-19T12:50:17.639Z,20.64
2019-02-19T12:51:26.122Z,20.44
2019-02-19T12:52:17.548Z,20.93